Terminal Aerodrome Forecast
Issued by NWS Albany, NY

Current Version | Previous Version | Text Only | Print | Product List | Glossary On
Versions: 1 2 3 4 5 6 7 8 9 10 11 12 13 14 15 16 17 18 19 20 21
000
FTUS41 KALY 041734
TAFGFL
TAF
KGFL 041734Z 0418/0518 08006KT P6SM FEW045
     FM042300 VRB03KT P6SM SKC
     FM050600 00000KT 2SM BR SCT002
     FM050800 00000KT 1/2SM FG OVC002
     FM051300 15004KT P6SM SKC=

USA.gov is the U.S. government's official web portal to all federal, state and local government web resources and services.